createdAt,value
2022-12-05T17:02:15.797Z,81.75
2022-12-05T17:03:47.761Z,82.50
2022-12-05T17:05:19.461Z,79.25
2022-12-05T17:06:51.134Z,79.00
2022-12-05T17:08:23.430Z,70.50
2022-12-05T17:09:55.142Z,71.40
2022-12-05T17:11:28.043Z,63.40
2022-12-05T17:13:03.192Z,70.00
2022-12-05T17:14:34.941Z,64.60
2022-12-05T17:16:06.908Z,59.40
2022-12-05T17:17:38.751Z,54.50
2022-12-05T17:19:11.263Z,56.50
2022-12-05T17:20:44.781Z,52.75
2022-12-05T17:22:16.579Z,50.75
2022-12-05T17:23:48.578Z,54.75
2022-12-05T17:25:30.742Z,50.50
2022-12-05T17:27:02.485Z,49.50
2022-12-05T17:28:34.204Z,45.25
2022-12-05T17:30:06.781Z,48.50
2022-12-05T17:31:39.002Z,45.50
2022-12-05T17:33:12.111Z,45.25
2022-12-05T17:34:43.905Z,45.75
2022-12-05T17:36:15.611Z,42.75
2022-12-05T17:37:47.414Z,43.25
2022-12-05T17:39:22.451Z,45.00
2022-12-05T17:41:02.450Z,39.00
2022-12-05T17:42:35.669Z,42.50
2022-12-05T17:44:07.431Z,41.00
2022-12-05T17:45:39.117Z,37.75
2022-12-05T17:47:10.877Z,36.25
2022-12-05T17:48:42.639Z,39.00
2022-12-05T17:50:19.460Z,37.00
2022-12-05T17:52:20.675Z,35.00
2022-12-05T17:53:46.062Z,34.00
2022-12-05T17:55:20.147Z,35.50
2022-12-05T17:56:51.896Z,36.50
2022-12-05T17:58:23.777Z,36.25
2022-12-05T17:59:55.525Z,35.50
2022-12-05T18:01:27.407Z,35.00
2022-12-05T18:02:59.224Z,34.75
2022-12-05T18:04:30.925Z,35.50
2022-12-05T18:06:05.117Z,33.50
2022-12-05T18:07:37.753Z,34.80
2022-12-05T18:09:09.438Z,34.00
2022-12-05T18:10:42.897Z,34.00
2022-12-05T18:12:14.713Z,35.00
2022-12-05T18:13:46.405Z,33.60
2022-12-05T18:15:18.159Z,34.40
2022-12-05T18:16:49.886Z,32.20
2022-12-05T18:18:21.631Z,28.25
2022-12-05T18:19:55.961Z,32.20
2022-12-05T18:21:27.649Z,33.40
2022-12-05T18:22:59.471Z,33.00
2022-12-05T18:24:31.163Z,34.50
2022-12-05T18:26:04.882Z,34.00
2022-12-05T18:27:36.606Z,33.00
2022-12-05T18:29:08.289Z,33.20
2022-12-05T18:30:39.906Z,34.00
2022-12-05T18:32:12.207Z,34.80
2022-12-05T18:33:44.541Z,38.00
2022-12-05T18:35:16.365Z,47.25
2022-12-05T18:36:48.004Z,49.75
2022-12-05T18:38:19.672Z,58.25
2022-12-05T18:39:51.351Z,64.40
2022-12-05T18:41:23.683Z,71.20
2022-12-05T18:42:55.349Z,82.25
2022-12-05T18:44:27.025Z,86.25
2022-12-05T18:45:59.653Z,91.75
2022-12-05T18:47:31.713Z,99.00
2022-12-05T18:49:04.231Z,99.00
2022-12-05T18:50:35.917Z,108.00
2022-12-05T18:52:07.608Z,110.75
2022-12-05T18:53:39.487Z,109.25
2022-12-05T18:55:17.155Z,114.25
2022-12-05T18:56:51.132Z,120.25
2022-12-05T18:58:23.970Z,120.67
2022-12-05T18:59:55.824Z,123.75
2022-12-05T19:01:28.280Z,134.67
2022-12-05T19:03:00.066Z,132.33
2022-12-05T19:04:31.691Z,137.33
2022-12-05T19:06:14.256Z,140.67
2022-12-05T19:07:46.573Z,146.33
2022-12-05T19:09:19.327Z,146.33
2022-12-05T19:10:50.985Z,138.00
2022-12-05T19:12:22.667Z,143.67
2022-12-05T19:14:01.358Z,147.33
2022-12-05T19:15:33.165Z,143.67
2022-12-05T19:17:05.006Z,138.67
2022-12-05T19:18:36.764Z,145.67
2022-12-05T19:20:08.866Z,144.00
2022-12-05T19:21:40.779Z,152.67
2022-12-05T19:23:12.460Z,142.33
2022-12-05T19:24:44.746Z,146.33
2022-12-05T19:26:16.494Z,151.33
2022-12-05T19:27:48.184Z,147.00
2022-12-05T19:29:19.811Z,143.67
2022-12-05T19:31:02.189Z,141.67
2022-12-05T19:32:38.491Z,143.00
2022-12-05T19:34:12.232Z,137.67
2022-12-05T19:35:43.948Z,151.67
2022-12-05T19:37:15.643Z,142.00
2022-12-05T19:38:48.492Z,125.67
2022-12-05T19:40:20.127Z,114.67
2022-12-05T19:41:51.877Z,116.67
2022-12-05T19:43:23.561Z,123.50
2022-12-05T19:44:55.249Z,122.50
2022-12-05T19:46:29.638Z,117.50
2022-12-05T19:48:01.483Z,117.00
2022-12-05T19:49:33.242Z,109.75
2022-12-05T19:51:05.103Z,98.75
2022-12-05T19:52:36.850Z,107.25
2022-12-05T19:54:09.150Z,114.00
2022-12-05T19:55:40.867Z,109.50
2022-12-05T19:57:12.632Z,108.75
2022-12-05T19:58:44.654Z,107.00
2022-12-05T20:00:19.883Z,99.50
2022-12-05T20:01:51.628Z,104.75
2022-12-05T20:03:23.434Z,105.75
2022-12-05T20:04:55.165Z,99.75
2022-12-05T20:06:31.156Z,92.00
2022-12-05T20:08:02.871Z,101.75
2022-12-05T20:09:34.841Z,100.00
2022-12-05T20:11:08.843Z,105.50
2022-12-05T20:12:40.551Z,103.00
2022-12-05T20:14:12.754Z,97.75
2022-12-05T20:15:44.442Z,96.75
2022-12-05T20:17:16.923Z,98.50
2022-12-05T20:18:49.047Z,92.50
2022-12-05T20:20:20.711Z,93.00
2022-12-05T20:21:52.494Z,93.50
2022-12-05T20:23:24.718Z,91.75
2022-12-05T20:24:57.246Z,94.00
2022-12-05T20:26:33.714Z,97.25
2022-12-05T20:28:05.895Z,94.00
2022-12-05T20:29:39.035Z,119.00
2022-12-05T20:31:13.210Z,170.50
2022-12-05T20:32:45.022Z,134.67
2022-12-05T20:34:16.723Z,120.33
2022-12-05T20:35:48.398Z,120.50
2022-12-05T20:37:20.359Z,114.50
2022-12-05T20:39:15.339Z,125.25
2022-12-05T20:40:47.050Z,118.00
2022-12-05T20:42:19.247Z,121.00
2022-12-05T20:43:55.551Z,122.75
2022-12-05T20:45:27.235Z,127.00
2022-12-05T20:46:58.946Z,131.00
2022-12-05T20:48:30.743Z,121.67
2022-12-05T20:50:02.393Z,125.67
2022-12-05T20:51:34.319Z,133.33
2022-12-05T20:53:06.670Z,129.00
2022-12-05T20:54:38.650Z,127.67
2022-12-05T20:56:13.979Z,134.67
2022-12-05T20:57:46.587Z,128.33
2022-12-05T20:59:18.287Z,123.00
2022-12-05T21:00:50.012Z,126.67
2022-12-05T21:02:21.680Z,130.33
2022-12-05T21:03:54.240Z,131.00
2022-12-05T21:05:25.904Z,129.00
2022-12-05T21:06:57.713Z,121.33
2022-12-05T21:08:29.371Z,120.00
2022-12-05T21:10:04.886Z,120.00
2022-12-05T21:11:39.702Z,121.25
2022-12-05T21:13:11.378Z,120.75
2022-12-05T21:14:43.123Z,202.75
2022-12-05T21:16:19.761Z,171.75
2022-12-05T21:17:51.483Z,153.00
2022-12-05T21:19:23.214Z,145.00
2022-12-05T21:21:06.008Z,141.33
2022-12-05T21:22:37.734Z,132.00
2022-12-05T21:24:09.739Z,134.33
2022-12-05T21:25:41.965Z,124.33
2022-12-05T21:27:13.710Z,129.00
2022-12-05T21:28:45.807Z,116.00
2022-12-05T21:30:17.523Z,127.33
2022-12-05T21:31:49.942Z,125.00
2022-12-05T21:33:27.264Z,126.33
2022-12-05T21:35:00.359Z,132.00
2022-12-05T21:36:32.803Z,129.67
2022-12-05T21:38:04.498Z,124.67
2022-12-05T21:39:36.722Z,127.67
2022-12-05T21:41:08.390Z,115.25
2022-12-05T21:42:46.816Z,121.50
2022-12-05T21:44:20.700Z,119.50
2022-12-05T21:45:53.556Z,116.00
2022-12-05T21:47:25.573Z,120.25
2022-12-05T21:48:57.467Z,114.75
2022-12-05T21:50:29.209Z,115.75
2022-12-05T21:52:00.870Z,109.75
2022-12-05T21:53:32.632Z,110.00
2022-12-05T21:55:04.537Z,107.00
2022-12-05T21:56:36.239Z,109.00
2022-12-05T21:58:09.939Z,102.75
2022-12-05T21:59:41.694Z,134.67
2022-12-05T22:01:20.041Z,109.75
2022-12-05T22:02:51.826Z,110.50
2022-12-05T22:04:23.793Z,105.50
2022-12-05T22:06:05.758Z,114.25
2022-12-05T22:07:37.448Z,107.25
2022-12-05T22:09:09.184Z,111.75
2022-12-05T22:10:40.795Z,115.25
2022-12-05T22:12:12.492Z,113.00
2022-12-05T22:13:44.671Z,113.75
2022-12-05T22:15:16.515Z,116.00
2022-12-05T22:16:48.182Z,113.50
2022-12-05T22:18:19.881Z,106.00
2022-12-05T22:19:51.557Z,113.25
2022-12-05T22:21:23.251Z,111.00
2022-12-05T22:22:54.933Z,111.75
2022-12-05T22:24:26.614Z,106.50
2022-12-05T22:26:02.445Z,97.75
2022-12-05T22:27:34.106Z,101.25
2022-12-05T22:29:05.922Z,102.50
2022-12-05T22:30:37.573Z,104.75
2022-12-05T22:32:09.231Z,101.50
2022-12-05T22:33:41.075Z,101.50
2022-12-05T22:35:12.837Z,100.00
2022-12-05T22:36:44.536Z,100.50
2022-12-05T22:38:16.171Z,96.25
2022-12-05T22:39:47.985Z,89.75
2022-12-05T22:41:24.495Z,91.25
2022-12-05T22:42:56.145Z,92.25
2022-12-05T22:44:28.134Z,90.25
2022-12-05T22:46:07.183Z,93.75
2022-12-05T22:47:38.963Z,92.00
2022-12-05T22:49:11.659Z,80.00
2022-12-05T22:50:50.550Z,83.50
2022-12-05T22:52:22.253Z,84.25
2022-12-05T22:53:54.208Z,88.00
2022-12-05T22:55:25.925Z,83.75
2022-12-05T22:56:57.566Z,80.75
2022-12-05T22:58:29.261Z,83.00
2022-12-05T23:00:01.294Z,80.50
2022-12-05T23:01:33.926Z,73.50
2022-12-05T23:03:05.736Z,78.25
2022-12-05T23:04:37.419Z,72.00
2022-12-05T23:06:11.827Z,73.50
2022-12-05T23:07:46.096Z,69.00
2022-12-05T23:09:17.979Z,81.75
2022-12-05T23:10:49.687Z,77.00
2022-12-05T23:12:21.494Z,77.80
2022-12-05T23:14:01.173Z,73.00
2022-12-05T23:15:33.691Z,71.80
2022-12-05T23:17:05.309Z,66.20
2022-12-05T23:18:46.816Z,56.80
2022-12-05T23:20:18.810Z,65.40
2022-12-05T23:21:50.442Z,54.80
2022-12-05T23:23:22.103Z,74.25
2022-12-05T23:24:54.794Z,75.80
2022-12-05T23:26:29.210Z,74.75
2022-12-05T23:28:00.907Z,73.00
2022-12-05T23:29:32.837Z,80.00
2022-12-05T23:31:08.381Z,77.50
2022-12-05T23:32:40.079Z,73.50
2022-12-05T23:34:12.138Z,78.25
